Time;durP1;ratioP1;P1;durP2;ratioP2;P2;SDS_P1;SDS_P2;PMS_P1;PMS_P2;Temp;Humidity;BMP_temperature;BMP_pressure;BME280_temperature;BME280_humidity;BME280_pressure;Samples;Min_cycle;Max_cycle;Signal;HPM_P1;HPM_P2
2021/09/18 00:01:34;;;;;;;2.50;2.30;;;13.40;99.90;;;;;;4973151;28;20227;-54
2021/09/18 00:04:05;;;;;;;2.40;2.30;;;13.50;99.90;;;;;;4978171;28;20393;-56
2021/09/18 00:06:33;;;;;;;2.75;2.03;;;13.40;99.90;;;;;;4978288;28;20203;-48
2021/09/18 00:09:01;;;;;;;4.70;2.95;;;13.50;99.90;;;;;;4978987;28;20233;-55
2021/09/18 00:11:28;;;;;;;2.30;2.10;;;13.70;99.90;;;;;;4971827;28;20218;-55
2021/09/18 00:13:56;;;;;;;2.03;1.90;;;13.80;99.90;;;;;;4976047;28;20393;-54
2021/09/18 00:16:23;;;;;;;2.30;2.10;;;13.70;99.90;;;;;;4981376;28;20429;-55
2021/09/18 00:18:50;;;;;;;2.38;2.17;;;13.90;99.90;;;;;;4980821;28;20248;-55
2021/09/18 00:21:18;;;;;;;2.17;1.98;;;13.90;99.90;;;;;;4977677;28;20262;-52
2021/09/18 00:23:45;;;;;;;2.38;2.17;;;13.90;99.90;;;;;;4974909;28;20234;-52
2021/09/18 00:26:12;;;;;;;2.03;1.92;;;14.00;99.90;;;;;;4982979;28;20206;-54
2021/09/18 00:28:40;;;;;;;2.50;2.40;;;13.80;99.90;;;;;;4984740;28;20206;-54
2021/09/18 00:31:07;;;;;;;2.95;2.75;;;13.90;99.90;;;;;;4981491;28;20261;-50
2021/09/18 00:33:34;;;;;;;2.17;1.98;;;13.80;99.90;;;;;;4980452;28;20295;-55
2021/09/18 00:36:01;;;;;;;2.83;2.22;;;13.60;99.90;;;;;;4980010;28;20202;-56
2021/09/18 00:38:28;;;;;;;1.95;1.80;;;13.60;99.90;;;;;;4975821;28;20222;-56
2021/09/18 00:40:57;;;;;;;2.38;2.25;;;13.60;99.90;;;;;;4978309;28;20222;-54
2021/09/18 00:43:25;;;;;;;2.00;1.90;;;13.60;99.90;;;;;;4976474;28;20245;-54
2021/09/18 00:45:52;;;;;;;2.00;1.90;;;13.60;99.90;;;;;;4978246;28;20202;-54
2021/09/18 00:48:19;;;;;;;2.65;2.45;;;13.50;99.90;;;;;;4972630;28;20198;-55
2021/09/18 00:50:47;;;;;;;1.90;1.80;;;13.50;99.90;;;;;;4980660;28;20213;-56
2021/09/18 00:53:14;;;;;;;2.80;2.60;;;13.60;99.90;;;;;;4980247;28;20210;-54
2021/09/18 00:55:44;;;;;;;3.55;2.70;;;13.80;99.90;;;;;;4981007;28;20206;-48
2021/09/18 00:58:12;;;;;;;2.00;1.50;;;13.80;99.90;;;;;;4968605;28;20265;-53
2021/09/18 01:00:39;;;;;;;4.05;2.63;;;13.90;99.90;;;;;;4974491;28;20391;-55
2021/09/18 01:03:07;;;;;;;2.38;2.10;;;13.90;99.90;;;;;;4971673;28;20279;-56
2021/09/18 01:05:38;;;;;;;2.80;2.60;;;13.80;99.90;;;;;;4977717;28;20229;-56
2021/09/18 01:08:05;;;;;;;3.17;2.70;;;13.70;99.90;;;;;;4974026;28;20206;-56
2021/09/18 01:10:32;;;;;;;3.10;2.80;;;13.60;99.90;;;;;;4987450;28;20523;-59
2021/09/18 01:13:15;;;;;;;2.10;2.00;;;13.60;99.90;;;;;;4976227;28;20207;-54
2021/09/18 01:15:42;;;;;;;2.33;2.22;;;13.60;99.90;;;;;;4978681;28;20343;-55
2021/09/18 01:18:11;;;;;;;2.60;2.40;;;13.70;99.90;;;;;;4980133;28;20271;-59
2021/09/18 01:20:41;;;;;;;2.10;2.00;;;13.60;99.90;;;;;;4980776;28;20551;-52
2021/09/18 01:23:10;;;;;;;1.98;1.83;;;13.80;99.90;;;;;;4983480;28;20505;-56
2021/09/18 01:25:40;;;;;;;2.20;2.00;;;13.70;99.90;;;;;;4977884;28;20203;-56
2021/09/18 01:28:07;;;;;;;2.10;1.90;;;13.70;99.90;;;;;;4966916;28;20219;-57
2021/09/18 01:30:35;;;;;;;2.00;1.77;;;13.80;99.90;;;;;;4981731;28;20206;-57
2021/09/18 01:33:05;;;;;;;2.90;2.67;;;13.90;99.90;;;;;;4981505;28;20221;-56
2021/09/18 01:35:32;;;;;;;2.25;2.05;;;13.80;99.90;;;;;;4974570;28;20218;-54
2021/09/18 01:38:00;;;;;;;2.33;2.13;;;13.70;99.90;;;;;;4979304;28;20225;-56
2021/09/18 01:40:30;;;;;;;2.30;2.20;;;13.70;99.90;;;;;;4981069;28;20205;-53
2021/09/18 01:42:58;;;;;;;2.15;2.05;;;13.60;99.90;;;;;;4979921;28;20222;-59
2021/09/18 01:45:25;;;;;;;1.90;1.80;;;13.60;99.90;;;;;;4979957;28;20199;-57
2021/09/18 01:47:57;;;;;;;1.90;1.80;;;13.60;99.90;;;;;;4972788;28;20210;-55
2021/09/18 01:50:35;;;;;;;2.00;1.90;;;13.60;99.90;;;;;;4977840;28;20229;-51
2021/09/18 01:53:04;;;;;;;1.92;1.83;;;13.70;99.90;;;;;;4981742;28;20497;-56
2021/09/18 01:55:32;;;;;;;2.55;2.35;;;13.70;99.90;;;;;;4980781;28;20209;-57
2021/09/18 01:58:01;;;;;;;3.03;2.83;;;13.60;99.90;;;;;;4977181;28;20409;-55
2021/09/18 02:00:29;;;;;;;2.38;2.28;;;13.50;99.90;;;;;;4982174;28;20198;-54
2021/09/18 02:02:56;;;;;;;2.53;2.33;;;13.60;99.90;;;;;;4977004;28;20226;-53
2021/09/18 02:05:26;;;;;;;2.53;2.42;;;13.60;99.90;;;;;;4983408;28;20612;-57
2021/09/18 02:07:54;;;;;;;2.40;2.30;;;13.60;99.90;;;;;;4971415;28;20448;-55
2021/09/18 02:10:25;;;;;;;2.15;2.05;;;13.50;99.90;;;;;;4975612;28;20206;-54
2021/09/18 02:12:52;;;;;;;3.67;2.20;;;13.40;99.90;;;;;;4983019;28;20456;-54
2021/09/18 02:15:22;;;;;;;3.40;2.90;;;13.40;99.90;;;;;;4982909;28;20195;-55
2021/09/18 02:17:50;;;;;;;2.08;1.98;;;13.30;99.90;;;;;;4975644;28;20202;-50
2021/09/18 02:20:19;;;;;;;2.95;2.65;;;13.40;99.90;;;;;;4979459;28;20447;-57
2021/09/18 02:22:47;;;;;;;2.20;2.00;;;13.40;99.90;;;;;;4977426;28;20222;-55
2021/09/18 02:25:15;;;;;;;2.40;2.30;;;13.40;99.90;;;;;;4973856;28;20229;-57
2021/09/18 02:27:42;;;;;;;6.18;2.55;;;13.40;99.90;;;;;;4985349;28;20203;-56
2021/09/18 02:30:13;;;;;;;1.98;1.88;;;13.40;99.90;;;;;;4977975;28;20207;-57
2021/09/18 02:32:40;;;;;;;2.58;2.38;;;13.50;99.90;;;;;;4985515;28;20234;-55
2021/09/18 02:35:11;;;;;;;2.80;2.05;;;13.50;99.90;;;;;;4981787;28;21015;-54
2021/09/18 02:37:39;;;;;;;2.42;2.22;;;13.40;99.90;;;;;;4985410;28;20222;-57
2021/09/18 02:40:08;;;;;;;2.55;2.45;;;13.40;99.90;;;;;;4987029;28;20445;-56
2021/09/18 02:42:37;;;;;;;2.92;2.72;;;13.30;99.90;;;;;;4980700;28;20241;-53
2021/09/18 02:45:06;;;;;;;2.63;2.42;;;13.20;99.90;;;;;;4977400;28;20194;-57
2021/09/18 02:47:34;;;;;;;2.78;2.60;;;13.20;99.90;;;;;;4982812;28;20207;-53
2021/09/18 02:50:02;;;;;;;4.22;3.83;;;13.10;99.90;;;;;;4978255;28;20210;-55
2021/09/18 02:52:29;;;;;;;3.33;3.03;;;13.10;99.90;;;;;;4981130;28;20222;-56
2021/09/18 02:54:56;;;;;;;3.17;2.97;;;13.10;99.90;;;;;;4981767;28;20273;-55
2021/09/18 02:57:23;;;;;;;2.40;2.20;;;13.20;99.90;;;;;;4972463;28;20220;-60
2021/09/18 02:59:51;;;;;;;2.58;2.45;;;13.20;99.90;;;;;;4973088;28;20237;-56
2021/09/18 03:02:18;;;;;;;3.35;2.83;;;13.40;99.90;;;;;;4975093;28;20240;-59
2021/09/18 03:04:46;;;;;;;3.28;2.97;;;13.30;99.90;;;;;;4976184;28;20237;-53
2021/09/18 03:07:13;;;;;;;2.30;2.20;;;13.40;99.90;;;;;;4968655;28;20210;-55
2021/09/18 03:09:40;;;;;;;3.45;3.15;;;13.30;99.90;;;;;;4975419;28;20249;-54
2021/09/18 03:12:07;;;;;;;2.50;2.30;;;13.20;99.90;;;;;;4970871;28;20615;-54
2021/09/18 03:14:34;;;;;;;3.30;3.00;;;13.30;99.90;;;;;;4974967;28;20202;-53
2021/09/18 03:17:02;;;;;;;2.80;2.55;;;13.30;99.90;;;;;;4971006;28;20469;-54
2021/09/18 03:19:29;;;;;;;2.60;2.42;;;13.20;99.90;;;;;;4976967;28;20285;-57
2021/09/18 03:21:56;;;;;;;2.75;2.55;;;13.30;99.90;;;;;;4970971;28;20585;-54
2021/09/18 03:24:23;;;;;;;2.65;2.45;;;13.30;99.90;;;;;;4980888;28;20198;-54
2021/09/18 03:26:50;;;;;;;2.38;2.13;;;13.30;99.90;;;;;;4973990;28;20520;-56
2021/09/18 03:29:18;;;;;;;3.45;3.15;;;13.20;99.90;;;;;;4978834;28;20313;-50
2021/09/18 03:31:45;;;;;;;2.90;2.70;;;13.20;99.90;;;;;;4976198;28;20223;-56
2021/09/18 03:34:12;;;;;;;3.15;2.95;;;13.20;99.90;;;;;;4971407;28;20525;-56
2021/09/18 03:36:40;;;;;;;3.85;2.60;;;13.30;99.90;;;;;;4974663;28;20254;-58
2021/09/18 03:39:07;;;;;;;3.22;2.92;;;13.20;99.90;;;;;;4979779;28;20222;-51
2021/09/18 03:41:34;;;;;;;3.33;2.83;;;13.20;99.90;;;;;;4973619;28;20280;-53
2021/09/18 03:44:01;;;;;;;2.13;2.03;;;13.20;99.90;;;;;;4975850;28;20198;-59
2021/09/18 03:46:28;;;;;;;2.60;2.40;;;13.20;99.90;;;;;;4981487;28;20198;-56
2021/09/18 03:48:55;;;;;;;3.25;3.05;;;13.20;99.90;;;;;;4979222;28;20394;-60
2021/09/18 03:51:23;;;;;;;3.85;2.10;;;13.20;99.90;;;;;;4974217;28;20229;-57
2021/09/18 03:53:50;;;;;;;2.20;2.10;;;13.10;99.90;;;;;;4980266;28;20540;-56
2021/09/18 03:56:17;;;;;;;3.40;2.95;;;13.10;99.90;;;;;;4975265;28;20202;-56
2021/09/18 03:58:44;;;;;;;3.03;2.80;;;13.20;99.90;;;;;;4971727;28;20222;-56
2021/09/18 04:01:11;;;;;;;2.55;2.22;;;13.20;99.90;;;;;;4979736;28;20230;-51
2021/09/18 04:03:38;;;;;;;2.20;2.00;;;13.20;99.90;;;;;;4987171;28;20248;-54
2021/09/18 04:06:06;;;;;;;3.13;2.45;;;13.20;99.90;;;;;;4972880;28;20211;-57
2021/09/18 04:08:33;;;;;;;3.00;1.92;;;13.20;99.90;;;;;;4974734;28;20536;-54
2021/09/18 04:11:01;;;;;;;2.70;2.20;;;13.10;99.90;;;;;;4975378;28;20242;-51
2021/09/18 04:13:27;;;;;;;2.00;1.90;;;13.10;99.90;;;;;;4974074;28;20206;-56
2021/09/18 04:15:55;;;;;;;2.72;2.53;;;13.20;99.90;;;;;;4976479;28;20212;-58
2021/09/18 04:18:22;;;;;;;3.53;3.20;;;13.30;99.90;;;;;;4986835;28;20206;-56
2021/09/18 04:20:49;;;;;;;2.22;2.13;;;13.40;99.90;;;;;;4981211;28;20392;-58
2021/09/18 04:23:16;;;;;;;2.60;2.40;;;13.40;99.90;;;;;;4978001;28;20222;-56
2021/09/18 04:25:43;;;;;;;2.65;2.42;;;13.30;99.90;;;;;;4976621;28;20233;-59
2021/09/18 04:28:10;;;;;;;2.63;2.42;;;13.30;99.90;;;;;;4980264;28;20512;-58
2021/09/18 04:30:37;;;;;;;2.53;2.33;;;13.30;99.90;;;;;;4979742;28;20206;-56
2021/09/18 04:33:05;;;;;;;2.63;2.42;;;13.20;99.90;;;;;;4976835;28;20513;-57
2021/09/18 04:35:32;;;;;;;2.40;2.30;;;13.20;99.90;;;;;;4974134;28;20209;-55
2021/09/18 04:37:59;;;;;;;2.30;2.10;;;13.40;99.90;;;;;;4977495;28;20205;-59
2021/09/18 04:40:26;;;;;;;2.53;2.33;;;13.40;99.90;;;;;;4975169;28;20223;-54
2021/09/18 04:42:54;;;;;;;2.15;2.03;;;13.40;99.90;;;;;;4974756;28;20222;-56
2021/09/18 04:45:21;;;;;;;2.78;2.63;;;13.40;99.90;;;;;;4978125;28;20207;-55
2021/09/18 04:47:48;;;;;;;2.70;2.60;;;13.40;99.90;;;;;;4976983;28;20203;-56
2021/09/18 04:50:15;;;;;;;7.00;3.70;;;13.40;99.90;;;;;;4976532;28;20202;-55
2021/09/18 04:52:43;;;;;;;3.30;3.00;;;13.50;99.90;;;;;;4980494;28;20226;-53
2021/09/18 04:55:10;;;;;;;2.92;2.75;;;13.40;99.90;;;;;;4981475;28;20205;-53
2021/09/18 04:57:37;;;;;;;4.00;3.70;;;13.40;99.90;;;;;;4985326;28;20234;-57
2021/09/18 05:00:05;;;;;;;3.95;3.70;;;13.40;99.90;;;;;;4984955;28;20551;-57
2021/09/18 05:02:32;;;;;;;4.55;4.00;;;13.20;99.90;;;;;;4980762;28;20219;-52
2021/09/18 05:05:00;;;;;;;6.10;4.40;;;13.10;99.90;;;;;;4981694;28;20396;-54
2021/09/18 05:07:27;;;;;;;4.07;3.78;;;13.00;99.90;;;;;;4976320;28;20238;-54
2021/09/18 05:09:54;;;;;;;3.20;2.90;;;13.00;99.90;;;;;;4982141;28;20202;-49
2021/09/18 05:12:22;;;;;;;3.92;3.63;;;13.10;99.90;;;;;;4984229;28;20300;-56
2021/09/18 05:14:48;;;;;;;3.40;3.10;;;13.30;99.90;;;;;;4981481;28;20202;-56
2021/09/18 05:17:16;;;;;;;2.95;2.75;;;13.30;99.90;;;;;;4986083;28;20258;-57
2021/09/18 05:19:43;;;;;;;4.28;3.30;;;13.40;99.90;;;;;;4982046;28;20448;-58
2021/09/18 05:22:10;;;;;;;3.75;3.45;;;13.50;99.90;;;;;;4977439;28;20285;-55
2021/09/18 05:24:37;;;;;;;3.25;3.05;;;13.70;99.90;;;;;;4976008;28;20226;-52
2021/09/18 05:27:06;;;;;;;2.90;2.70;;;13.80;99.90;;;;;;4977755;28;20207;-55
2021/09/18 05:29:33;;;;;;;2.83;2.65;;;13.80;99.90;;;;;;4977721;28;20202;-58
2021/09/18 05:32:00;;;;;;;2.88;2.67;;;14.00;99.90;;;;;;4995483;28;20276;-56
2021/09/18 05:34:27;;;;;;;3.00;2.80;;;14.20;99.90;;;;;;4977521;28;20445;-53
2021/09/18 05:36:54;;;;;;;3.40;3.17;;;14.10;99.90;;;;;;4979633;28;20203;-52
2021/09/18 05:39:21;;;;;;;3.00;2.80;;;14.00;99.90;;;;;;4983940;28;20222;-57
2021/09/18 05:41:48;;;;;;;3.33;3.13;;;14.00;99.90;;;;;;4982221;28;20405;-53
2021/09/18 05:44:16;;;;;;;2.92;2.72;;;14.00;99.90;;;;;;4978478;28;20506;-57
2021/09/18 05:46:43;;;;;;;3.42;3.22;;;14.00;99.90;;;;;;4983792;28;20202;-57
2021/09/18 05:49:10;;;;;;;2.90;2.72;;;14.00;99.90;;;;;;4979282;28;20386;-56
2021/09/18 05:51:37;;;;;;;3.53;3.33;;;14.00;99.90;;;;;;4976449;28;20226;-54
2021/09/18 05:54:05;;;;;;;5.30;4.13;;;14.00;99.90;;;;;;4982753;28;20255;-54
2021/09/18 05:56:32;;;;;;;2.95;2.75;;;14.10;99.90;;;;;;4977567;28;20202;-57
2021/09/18 05:59:03;;;;;;;3.08;2.88;;;14.10;99.90;;;;;;4972846;28;20203;-57
2021/09/18 06:01:30;;;;;;;2.78;2.60;;;14.10;99.90;;;;;;4978605;28;20218;-59
2021/09/18 06:03:57;;;;;;;2.95;2.58;;;14.10;99.90;;;;;;4982498;28;20199;-56
2021/09/18 06:06:24;;;;;;;2.33;2.22;;;14.00;99.90;;;;;;4979191;28;20207;-56
2021/09/18 06:08:52;;;;;;;2.65;2.50;;;14.10;99.90;;;;;;4979433;28;20425;-56
2021/09/18 06:11:20;;;;;;;2.25;2.05;;;14.20;99.90;;;;;;4979212;28;20248;-51
2021/09/18 06:13:48;;;;;;;2.17;2.08;;;14.20;99.90;;;;;;4981402;28;20413;-60
2021/09/18 06:16:16;;;;;;;2.42;2.22;;;14.40;99.90;;;;;;4978380;28;20202;-56
2021/09/18 06:18:43;;;;;;;3.65;2.10;;;14.70;99.90;;;;;;4982267;28;20209;-60
2021/09/18 06:21:10;;;;;;;2.05;1.95;;;14.90;99.90;;;;;;4976115;28;20512;-52
2021/09/18 06:23:40;;;;;;;1.63;1.50;;;15.00;99.90;;;;;;4976865;28;20199;-57
2021/09/18 06:26:08;;;;;;;2.60;2.40;;;15.10;99.90;;;;;;4976631;28;20210;-56
2021/09/18 06:28:36;;;;;;;3.72;2.60;;;15.40;99.90;;;;;;4976931;28;20286;-52
2021/09/18 06:31:03;;;;;;;1.95;1.85;;;15.50;99.90;;;;;;4977363;28;20234;-55
2021/09/18 06:33:31;;;;;;;2.38;2.13;;;15.70;99.90;;;;;;4971204;28;20399;-57
2021/09/18 06:35:58;;;;;;;2.42;2.25;;;15.90;99.90;;;;;;4975666;28;20261;-56
2021/09/18 06:38:25;;;;;;;2.30;2.10;;;15.90;99.90;;;;;;4978720;28;20211;-54
2021/09/18 06:40:56;;;;;;;2.47;2.20;;;16.00;99.90;;;;;;4974373;28;20232;-55
2021/09/18 06:43:24;;;;;;;2.30;2.20;;;16.00;99.90;;;;;;4976991;28;20240;-55
2021/09/18 06:45:51;;;;;;;2.35;2.20;;;15.90;99.90;;;;;;4975325;28;20438;-59
2021/09/18 06:48:19;;;;;;;7.43;2.93;;;15.90;99.90;;;;;;4973516;28;20203;-54
2021/09/18 06:50:46;;;;;;;2.28;2.17;;;15.90;99.90;;;;;;4980432;28;20442;-55
2021/09/18 06:53:13;;;;;;;2.20;1.93;;;15.80;99.90;;;;;;4983208;28;20255;-51
2021/09/18 06:55:40;;;;;;;2.60;2.30;;;15.80;99.90;;;;;;4978183;28;20442;-57
2021/09/18 06:58:07;;;;;;;2.13;2.03;;;16.00;99.90;;;;;;4972088;28;20566;-56
2021/09/18 07:00:37;;;;;;;1.90;1.80;;;16.10;99.90;;;;;;4969362;28;20290;-56
2021/09/18 07:03:04;;;;;;;1.95;1.77;;;16.10;99.90;;;;;;4972621;28;20468;-54
2021/09/18 07:05:32;;;;;;;2.00;1.90;;;16.20;99.90;;;;;;4984670;28;20489;-55
2021/09/18 07:07:59;;;;;;;1.70;1.60;;;16.50;99.90;;;;;;4967855;28;20439;-55
2021/09/18 07:10:27;;;;;;;2.10;2.00;;;16.80;99.90;;;;;;4976527;28;20457;-58
2021/09/18 07:12:54;;;;;;;1.80;1.70;;;16.90;99.90;;;;;;4969386;28;20522;-55
2021/09/18 07:15:21;;;;;;;1.90;1.80;;;16.60;99.90;;;;;;4975418;28;20425;-55
2021/09/18 07:17:48;;;;;;;1.77;1.67;;;16.30;99.90;;;;;;4970804;28;20757;-57
2021/09/18 07:20:15;;;;;;;2.40;2.20;;;16.20;99.90;;;;;;4979891;28;20468;-56
2021/09/18 07:22:43;;;;;;;1.40;1.30;;;16.10;99.90;;;;;;4973935;28;20440;-56
2021/09/18 07:25:11;;;;;;;1.97;1.87;;;16.20;99.90;;;;;;4970697;28;20201;-58
2021/09/18 07:27:38;;;;;;;1.40;1.40;;;16.30;99.90;;;;;;4967574;28;20443;-56
2021/09/18 07:30:07;;;;;;;1.88;1.77;;;16.40;99.90;;;;;;4973893;28;20416;-56
2021/09/18 07:32:34;;;;;;;1.80;1.67;;;16.60;99.90;;;;;;4964699;28;20272;-54
2021/09/18 07:35:05;;;;;;;2.30;2.20;;;17.00;99.90;;;;;;4973535;28;20649;-54
2021/09/18 07:37:34;;;;;;;1.50;1.40;;;17.20;99.90;;;;;;4976067;28;20439;-55
2021/09/18 07:40:07;;;;;;;3.73;3.10;;;17.70;99.90;;;;;;4978921;28;20510;-57
2021/09/18 07:42:34;;;;;;;1.70;1.60;;;18.90;99.90;;;;;;4973934;28;20445;-56
2021/09/18 07:45:03;;;;;;;1.80;1.70;;;19.80;99.90;;;;;;4979663;28;20417;-53
2021/09/18 07:47:30;;;;;;;1.80;1.70;;;20.30;99.90;;;;;;4979473;28;20419;-57
2021/09/18 07:49:58;;;;;;;2.00;1.90;;;20.70;99.90;;;;;;4975798;28;20464;-56
2021/09/18 07:52:25;;;;;;;1.83;1.73;;;20.50;99.90;;;;;;4965904;28;20483;-58
2021/09/18 07:54:52;;;;;;;2.63;2.17;;;20.20;99.90;;;;;;4978622;28;20436;-59
2021/09/18 07:57:39;;;;;;;2.30;2.17;;;19.90;99.90;;;;;;4968365;28;20414;-55
2021/09/18 08:00:08;;;;;;;2.00;1.90;;;19.70;99.90;;;;;;4968957;28;20456;-57
2021/09/18 08:02:35;;;;;;;2.43;2.33;;;19.40;99.90;;;;;;4969090;28;20443;-55
2021/09/18 08:05:04;;;;;;;2.50;2.40;;;19.30;99.90;;;;;;4968914;28;20446;-55
2021/09/18 08:07:31;;;;;;;2.20;2.10;;;19.40;99.90;;;;;;4969271;28;20487;-55
2021/09/18 08:09:59;;;;;;;2.23;2.13;;;19.00;99.90;;;;;;4966736;28;20570;-56
2021/09/18 08:12:27;;;;;;;2.07;1.97;;;18.90;99.90;;;;;;4971368;28;20499;-57
2021/09/18 08:14:55;;;;;;;2.10;2.00;;;18.80;99.90;;;;;;4974533;28;20507;-56
2021/09/18 08:17:22;;;;;;;2.23;2.13;;;18.90;99.90;;;;;;4976939;28;20467;-56
2021/09/18 08:19:49;;;;;;;1.97;1.87;;;19.10;99.90;;;;;;4977735;28;20657;-56
2021/09/18 08:22:16;;;;;;;2.07;1.97;;;18.90;99.90;;;;;;4974739;28;20756;-54
2021/09/18 08:24:44;;;;;;;2.37;2.27;;;18.80;99.90;;;;;;4972343;28;20413;-54
2021/09/18 08:27:11;;;;;;;2.03;1.93;;;18.50;99.90;;;;;;4973364;28;20444;-56
2021/09/18 08:29:38;;;;;;;2.80;2.60;;;18.60;99.90;;;;;;4973794;28;20670;-55
2021/09/18 08:32:06;;;;;;;3.10;2.80;;;19.10;99.90;;;;;;4973909;28;20430;-55
2021/09/18 08:34:33;;;;;;;2.20;2.10;;;19.40;99.90;;;;;;4978343;28;20627;-53
2021/09/18 08:37:00;;;;;;;2.30;2.20;;;19.70;99.90;;;;;;4983714;28;20414;-56
2021/09/18 08:39:27;;;;;;;2.60;2.40;;;20.70;99.90;;;;;;4987950;28;20410;-57
2021/09/18 08:41:55;;;;;;;2.73;2.60;;;20.50;99.90;;;;;;4976309;28;20812;-54
2021/09/18 08:44:22;;;;;;;2.20;2.10;;;20.20;99.90;;;;;;4984794;28;20739;-52
2021/09/18 08:46:50;;;;;;;2.70;2.60;;;19.70;99.90;;;;;;4976374;28;20478;-58
2021/09/18 08:49:17;;;;;;;2.10;2.00;;;19.80;99.90;;;;;;4979616;28;20456;-58
2021/09/18 08:51:45;;;;;;;2.30;2.20;;;19.70;99.90;;;;;;4981221;28;20435;-52
2021/09/18 08:54:13;;;;;;;2.67;2.40;;;20.00;99.90;;;;;;4983868;28;20411;-53
2021/09/18 08:56:41;;;;;;;2.30;2.20;;;20.30;99.90;;;;;;4984277;28;20436;-57
2021/09/18 08:59:08;;;;;;;2.07;1.97;;;20.10;99.90;;;;;;4977754;28;20412;-55
2021/09/18 09:01:35;;;;;;;1.53;1.53;;;20.00;99.90;;;;;;4972973;28;20698;-55
2021/09/18 09:04:09;;;;;;;1.97;1.87;;;19.60;99.90;;;;;;4976455;28;20451;-53
2021/09/18 09:06:52;;;;;;;2.10;2.00;;;19.50;99.90;;;;;;4974191;28;20494;-54
2021/09/18 09:09:19;;;;;;;2.73;2.53;;;19.20;99.90;;;;;;4973679;28;20451;-54
2021/09/18 09:11:49;;;;;;;2.43;2.23;;;19.00;99.90;;;;;;4973833;28;20698;-52
2021/09/18 09:14:17;;;;;;;2.60;2.50;;;18.90;99.90;;;;;;4978682;28;20437;-57
2021/09/18 09:17:02;;;;;;;1.63;1.63;;;18.60;99.90;;;;;;4972243;28;20423;-56
2021/09/18 09:19:39;;;;;;;2.00;1.90;;;18.50;99.90;;;;;;4968989;28;20442;-53
2021/09/18 09:22:06;;;;;;;2.47;2.10;;;18.50;99.90;;;;;;4978623;28;20897;-52
2021/09/18 09:24:33;;;;;;;2.30;2.20;;;18.70;99.90;;;;;;4977146;28;20435;-54
2021/09/18 09:27:14;;;;;;;2.20;2.10;;;18.90;99.90;;;;;;4980301;28;20442;-55
2021/09/18 09:29:57;;;;;;;2.90;2.20;;;18.70;99.90;;;;;;4973818;28;20655;-57
2021/09/18 09:32:38;;;;;;;2.03;1.90;;;18.50;99.90;;;;;;4971270;28;20426;-53
2021/09/18 09:35:11;;;;;;;1.70;1.60;;;18.20;99.90;;;;;;4972564;28;20437;-54
2021/09/18 09:37:39;;;;;;;2.10;2.00;;;18.20;99.90;;;;;;4977943;28;20413;-54
2021/09/18 09:40:09;;;;;;;2.20;2.10;;;18.40;99.90;;;;;;4977123;28;20687;-52
2021/09/18 09:42:44;;;;;;;2.37;2.27;;;18.20;99.90;;;;;;4977008;28;20437;-53
2021/09/18 09:45:19;;;;;;;2.40;2.20;;;18.30;99.90;;;;;;4978061;28;20444;-49
2021/09/18 09:48:06;;;;;;;2.37;2.20;;;18.50;99.90;;;;;;4980925;28;20443;-56
2021/09/18 09:50:33;;;;;;;1.80;1.70;;;18.60;99.90;;;;;;4980363;28;20617;-54
2021/09/18 09:53:02;;;;;;;1.50;1.40;;;18.60;99.90;;;;;;4979307;28;20463;-53
2021/09/18 09:55:35;;;;;;;3.90;1.50;;;18.80;99.90;;;;;;4976677;28;20739;-53
2021/09/18 09:58:09;;;;;;;1.43;1.43;;;19.10;99.90;;;;;;4977663;28;20453;-52
2021/09/18 10:00:42;;;;;;;1.77;1.67;;;19.20;99.90;;;;;;4973464;28;20480;-54
2021/09/18 10:03:10;;;;;;;1.53;1.53;;;19.00;99.90;;;;;;4980553;28;20442;-54
2021/09/18 10:05:38;;;;;;;1.90;1.80;;;19.00;99.90;;;;;;4973061;28;20473;-54
2021/09/18 10:08:05;;;;;;;1.60;1.60;;;18.70;99.90;;;;;;4977298;28;20472;-52
2021/09/18 10:10:33;;;;;;;1.70;1.60;;;18.20;99.90;;;;;;4978802;28;20444;-57
2021/09/18 10:13:01;;;;;;;1.70;1.60;;;18.00;99.90;;;;;;4983065;28;20443;-54
2021/09/18 10:15:30;;;;;;;2.20;1.80;;;17.90;99.90;;;;;;4979682;28;20745;-54
2021/09/18 10:17:59;;;;;;;1.60;1.60;;;17.70;99.90;;;;;;4982683;28;20429;-51
2021/09/18 10:23:17;;;;;;;1.80;1.70;;;16.80;99.90;;;;;;4982936;28;20433;-49
2021/09/18 10:26:00;;;;;;;2.30;2.20;;;16.60;99.90;;;;;;4982917;28;20424;-52
2021/09/18 10:28:40;;;;;;;2.50;2.30;;;16.60;99.90;;;;;;4978410;28;20584;-53
2021/09/18 10:31:15;;;;;;;2.10;2.00;;;16.60;99.90;;;;;;4980765;28;20844;-54
2021/09/18 10:33:49;;;;;;;2.17;2.07;;;16.50;99.90;;;;;;4982607;28;20803;-53
2021/09/18 10:36:20;;;;;;;2.53;2.33;;;16.40;99.90;;;;;;4982748;28;20803;-55
2021/09/18 10:39:02;;;;;;;2.70;2.50;;;16.70;99.90;;;;;;4975423;28;20469;-56
2021/09/18 10:41:44;;;;;;;2.53;2.37;;;16.60;99.90;;;;;;4968096;28;20463;-53
2021/09/18 10:44:13;;;;;;;2.23;2.13;;;16.80;99.90;;;;;;4978311;28;20445;-55
2021/09/18 10:46:55;;;;;;;2.73;2.53;;;16.80;99.90;;;;;;4982967;28;20460;-51
2021/09/18 10:49:32;;;;;;;3.50;2.27;;;16.50;99.90;;;;;;4972538;28;20405;-54
2021/09/18 10:52:28;;;;;;;3.40;3.20;;;16.10;99.90;;;;;;4980914;28;20462;-58
2021/09/18 10:55:01;;;;;;;2.67;2.47;;;15.80;99.90;;;;;;4976542;28;20741;-56
2021/09/18 10:57:38;;;;;;;3.13;2.92;;;15.70;99.90;;;;;;4974112;28;20437;-54
2021/09/18 11:00:19;;;;;;;3.10;2.90;;;15.40;99.90;;;;;;4979168;28;20302;-56
2021/09/18 11:02:54;;;;;;;3.10;2.90;;;15.30;99.90;;;;;;4976364;28;20274;-57
2021/09/18 11:05:22;;;;;;;3.78;3.30;;;15.30;99.90;;;;;;4967771;28;20197;-54
2021/09/18 11:08:19;;;;;;;2.22;2.13;;;15.40;99.90;;;;;;4976030;28;20247;-57
2021/09/18 11:10:52;;;;;;;3.90;3.53;;;15.30;99.90;;;;;;4969060;28;20532;-56
2021/09/18 11:13:25;;;;;;;6.07;3.10;;;15.30;99.90;;;;;;4971175;28;20333;-55
2021/09/18 11:15:58;;;;;;;2.08;1.88;;;15.30;99.90;;;;;;4975907;28;20704;-54
2021/09/18 11:18:41;;;;;;;2.60;2.40;;;15.20;99.90;;;;;;4973452;28;20269;-58
2021/09/18 11:21:14;;;;;;;2.90;2.53;;;15.20;99.90;;;;;;4974608;28;20296;-55
2021/09/18 11:23:47;;;;;;;2.60;2.40;;;15.00;99.90;;;;;;4972631;28;20541;-58
2021/09/18 11:26:27;;;;;;;2.13;2.03;;;14.90;99.90;;;;;;4976479;28;20362;-59
2021/09/18 11:28:54;;;;;;;2.50;2.30;;;15.00;99.90;;;;;;4980155;28;20209;-60
2021/09/18 11:31:21;;;;;;;3.10;2.50;;;14.90;99.90;;;;;;4974880;28;20467;-52
2021/09/18 11:33:49;;;;;;;3.05;2.85;;;14.90;99.90;;;;;;4970003;28;20218;-52
2021/09/18 11:36:19;;;;;;;2.90;2.70;;;14.90;99.90;;;;;;4978504;28;20202;-58
2021/09/18 11:38:46;;;;;;;3.08;2.88;;;15.10;99.90;;;;;;4974766;28;20247;-54
2021/09/18 11:41:14;;;;;;;3.97;3.33;;;15.30;99.90;;;;;;4995585;28;20662;-57
2021/09/18 11:43:42;;;;;;;2.78;2.58;;;15.50;99.90;;;;;;4979288;28;20228;-55
2021/09/18 11:46:16;;;;;;;2.80;2.60;;;15.90;99.90;;;;;;4974611;28;20280;-55
2021/09/18 11:48:59;;;;;;;2.92;2.72;;;16.20;99.90;;;;;;4977384;28;20257;-56
2021/09/18 11:51:26;;;;;;;4.82;4.43;;;16.20;99.90;;;;;;4976411;28;20430;-54
2021/09/18 11:54:01;;;;;;;3.67;3.47;;;16.20;99.90;;;;;;4979899;28;20253;-56
2021/09/18 11:56:29;;;;;;;3.58;3.28;;;16.00;99.90;;;;;;4970802;28;20202;-54
2021/09/18 11:58:56;;;;;;;3.80;3.60;;;15.90;99.90;;;;;;4973640;28;20207;-57
2021/09/18 12:01:24;;;;;;;3.95;3.58;;;15.70;99.90;;;;;;4977881;28;20353;-58
2021/09/18 12:03:51;;;;;;;5.20;4.22;;;15.70;99.90;;;;;;4975810;28;20477;-56
2021/09/18 12:06:19;;;;;;;3.92;3.55;;;15.70;99.90;;;;;;4978181;28;20203;-59
2021/09/18 12:08:48;;;;;;;4.20;3.80;;;15.70;99.90;;;;;;4980789;28;20213;-56
2021/09/18 12:11:18;;;;;;;4.70;3.67;;;15.70;99.90;;;;;;4977711;28;20368;-59
2021/09/18 12:13:47;;;;;;;3.30;3.08;;;15.80;99.90;;;;;;4966395;28;20471;-55
2021/09/18 12:16:21;;;;;;;3.72;3.42;;;15.70;99.90;;;;;;4972611;28;20218;-60
2021/09/18 12:18:55;;;;;;;3.53;3.22;;;15.60;99.90;;;;;;4967780;28;20234;-60
2021/09/18 12:21:28;;;;;;;3.80;3.50;;;15.50;99.90;;;;;;4969159;28;20235;-59
2021/09/18 12:23:59;;;;;;;3.35;3.05;;;15.40;99.90;;;;;;4985670;28;20258;-54
2021/09/18 12:26:33;;;;;;;3.47;3.28;;;15.40;99.90;;;;;;4977402;28;20198;-61
2021/09/18 12:29:09;;;;;;;3.85;3.55;;;15.50;99.90;;;;;;4977663;28;20255;-57
2021/09/18 12:31:37;;;;;;;4.00;3.60;;;15.60;99.90;;;;;;4977090;28;20588;-58
2021/09/18 12:34:11;;;;;;;3.28;3.03;;;15.60;99.90;;;;;;4971718;28;20244;-58
2021/09/18 12:36:39;;;;;;;4.03;3.63;;;15.60;99.90;;;;;;4978768;28;20211;-63
2021/09/18 12:39:07;;;;;;;4.28;3.88;;;15.70;99.90;;;;;;4974281;28;20450;-56
2021/09/18 12:41:38;;;;;;;3.13;2.92;;;15.80;99.90;;;;;;4973430;28;20236;-55
2021/09/18 12:44:08;;;;;;;3.47;3.28;;;16.00;99.90;;;;;;4975658;28;20200;-56
2021/09/18 12:46:46;;;;;;;3.40;3.20;;;16.00;99.90;;;;;;4974567;28;20210;-58
2021/09/18 12:49:14;;;;;;;3.90;3.60;;;16.20;99.90;;;;;;4977971;28;20207;-58
2021/09/18 12:51:44;;;;;;;4.03;3.73;;;16.30;99.90;;;;;;4975334;28;20466;-57
2021/09/18 12:54:20;;;;;;;3.27;3.07;;;16.30;99.90;;;;;;4973332;28;20435;-57
2021/09/18 12:56:47;;;;;;;3.08;2.88;;;16.00;99.90;;;;;;4983266;28;20527;-58
2021/09/18 12:59:21;;;;;;;3.28;2.92;;;15.80;99.90;;;;;;4976820;28;20261;-60
2021/09/18 13:01:53;;;;;;;4.00;3.33;;;15.70;99.90;;;;;;4979380;28;20277;-57